Keisterville, PA (15449)

3:38 AM EDT on July 08, 2015 (GMT -0400)
APRSWXNET | | Change Station
CLOSE
Current Station
Personal Weather Station
Location: Uledi, PA
Elevation: 1220 ft
Nearby Weather Stations

Elev 1220 ft 39.89 °N, 79.76 °W | Updated 27 minutes ago

Overcast
Overcast
70 °F
Feels Like 70 °F
N
0
Wind Variable Wind from SSW
Gusts 0.0 mph

Today
High -- | Low -- °F
--% Chance of Precip.
Yesterday
High -- | Low -- °F
Precip. -- in
5:57 AM 8:50 PM
Waning Gibbous, 56% visible
Pressure 30.03 in
Visibility 10.0 miles
Clouds Few 900 ft
Mostly Cloudy 3800 ft
Overcast 8000 ft
Dew Point 68 °F
Humidity 95%
Rainfall in
Snow Depth Not available.
UV 0 out of 12
Pollen 3.40 out of 12
Air Quality Not available.
Flu Activity Not available.
SPECI KMGW 080716Z AUTO 18005KT 10SM FEW009 BKN038 OVC080 22/19 A3003 RMK AO2 RAE11 P0000 T02170189 TSNO

More Conditions Fewer Conditions

Pressure 30.03 in
Visibility 10.0 miles
Clouds Few 900 ft
Mostly Cloudy 3800 ft
Overcast 8000 ft
Dew Point 68 °F
Humidity 95%
Rainfall in
Snow Depth Not available.
UV 0 out of 12
Pollen 3.40 out of 12
Air Quality Not available.
Flu Activity Not available.
SPECI KMGW 080716Z AUTO 18005KT 10SM FEW009 BKN038 OVC080 22/19 A3003 RMK AO2 RAE11 P0000 T02170189 TSNO

More Conditions Fewer Conditions

10-Day Weather Forecast

×

Almanac

Astronomy

Jul. 08, 2015 Rise Set
Actual Time
Civil Twilight
Nautical Twilight
Astronomical Twilight
Moon
Length of Visible Light
Length of Day
Tomorrow will be .
, % of the Moon is Illuminated

Today's Extremes

State Highs State Lows

Community

WunderPhotos

Upload Photos

1,836,064 photos uploaded!

WunderBlogs® & News

Nearby

Air Quality

  Air Quality AQ Index Pollutant
Not available.

Snow Depth

Station Depth Elevation

Earthquake Activity

City Distance Mag. Time & Date
Minimum magnitude displayed is 2.5.

Coastal Water Temperatures

Place Temperature

Stations

Nearby Weather Stations

Station Location Temp. Windchill Dew Point Humidity Wind Precip. Elev Updated Type
                   
Flash Flood Watch
Statement as of 9:33 PM EDT on July 07, 2015

... Flash Flood Watch remains in effect through Wednesday
morning...

The Flash Flood Watch continues for

* portions of western Maryland... east central Ohio... southwest
Pennsylvania and West Virginia.

* Through Wednesday morning

* an approaching frontal boundary will bring moderate to heavy
rain across the watch area. Localized rainfall totals of 1 to
2 inches will be possible... which could cause flooding of
small creeks and streams as well as impacts to roads.

Precautionary/preparedness actions...

A Flash Flood Watch means that conditions may develop that lead
to flash flooding. Flash flooding is a very dangerous situation.

You should monitor later forecasts and be prepared to take action
should flash flood warnings be issued.